.
WxDataArchive / Data Records for 2009-05-25
2009-05-24 May 2009 2009-05-26

Data Records for Monday, 25 May 2009

Time	Temp	Chill	HIndex	Humid	Dewpt	 Wind 	HiWind	WindDir	Rain 	Barom 
-----	----	-----	------	-----	-----	------	------	-------	-----	----- 
00:00	65.0	65.0	65.0	63	52.1	2	4	112	0.00	30.033 
00:05	65.0	65.0	65.0	62	51.7	2	6	112	0.00	30.033 
00:10	64.8	64.8	64.8	61	51.0	2	5	90	0.00	30.033 
00:15	64.8	64.8	64.8	60	50.6	2	7	112	0.00	30.039 
00:20	64.8	64.8	64.8	60	50.6	2	6	90	0.00	30.039 
00:25	64.7	64.7	64.7	60	50.5	2	4	112	0.00	30.039 
00:30	64.5	64.5	64.5	60	50.3	2	6	90	0.00	30.038 
00:35	64.3	64.3	64.3	62	51.0	1	3	90	0.00	30.038 
00:40	64.2	64.2	64.2	63	51.3	0	1	90	0.00	30.038 
00:45	63.9	63.9	63.9	65	51.9	0	4	90	0.00	30.042 
00:50	63.7	63.7	63.7	65	51.7	1	5	90	0.00	30.042 
00:55	63.7	63.7	63.7	66	52.1	0	2	112	0.00	30.042 
01:00	63.5	63.5	63.5	66	51.9	1	3	112	0.00	30.048 
01:05	63.4	63.4	63.4	65	51.4	1	3	112	0.00	30.048 
01:10	63.4	63.4	63.4	65	51.4	1	3	112	0.00	30.048 
01:15	63.2	63.2	63.2	65	51.2	1	3	112	0.00	30.044 
01:20	63.2	63.2	63.2	66	51.6	1	4	112	0.00	30.044 
01:25	62.9	62.9	62.9	66	51.4	1	3	112	0.00	30.044 
01:30	62.7	62.7	62.7	67	51.6	1	3	112	0.00	30.042 
01:35	62.6	62.6	62.6	67	51.5	1	3	90	0.00	30.042 
01:40	62.4	62.4	62.4	68	51.7	1	3	90	0.00	30.042 
01:45	62.3	62.3	62.3	68	51.6	1	2	112	0.00	30.039 
01:50	62.1	62.1	62.1	68	51.4	1	4	112	0.00	30.039 
01:55	62.1	62.1	62.1	69	51.8	1	3	112	0.00	30.039 
02:00	62.0	62.0	62.0	68	51.3	1	4	112	0.00	30.039 
02:05	62.0	62.0	62.0	69	51.7	1	3	112	0.00	30.039 
02:10	61.8	61.8	61.8	69	51.5	1	2	112	0.00	30.039 
02:15	61.8	61.8	61.8	69	51.5	2	6	112	0.00	30.033 
02:20	61.8	61.8	61.8	69	51.5	1	4	112	0.00	30.033 
02:25	61.8	61.8	61.8	69	51.5	1	5	112	0.00	30.033 
02:30	61.8	61.8	61.8	69	51.5	1	4	112	0.00	30.033 
02:35	61.6	61.6	61.6	69	51.3	1	9	112	0.00	30.033 
02:40	61.6	61.6	61.6	68	50.9	2	7	112	0.00	30.033 
02:45	61.5	61.5	61.5	67	50.4	3	6	112	0.00	30.034 
02:50	61.5	61.5	61.5	68	50.8	1	5	90	0.00	30.034 
02:55	61.3	61.3	61.3	68	50.6	1	4	112	0.00	30.034 
03:00	61.3	61.3	61.3	65	49.4	3	7	112	0.00	30.034 
03:05	61.2	61.2	61.2	65	49.3	2	5	112	0.00	30.034 
03:10	61.2	61.2	61.2	65	49.3	1	4	112	0.00	30.034 
03:15	61.0	61.0	61.0	65	49.1	2	7	68	0.00	30.034 
03:20	61.0	61.0	61.0	66	49.6	0	3	135	0.00	30.034 
03:25	60.9	60.9	60.9	66	49.5	0	0	---	0.00	30.034 
03:30	60.9	60.9	60.9	65	49.1	0	0	---	0.00	30.035 
03:35	60.7	60.7	60.7	64	48.4	0	0	---	0.00	30.035 
03:40	60.7	60.7	60.7	64	48.4	0	0	---	0.00	30.035 
03:45	60.5	60.5	60.5	64	48.3	0	0	---	0.00	30.035 
03:50	60.5	60.5	60.5	65	48.7	0	0	---	0.00	30.035 
03:55	60.4	60.4	60.4	65	48.6	0	0	---	0.00	30.035 
04:00	60.2	60.2	60.2	61	46.7	0	0	---	0.00	30.035 
04:05	60.1	60.1	60.1	61	46.6	0	0	---	0.00	30.035 
04:10	59.9	59.9	59.9	61	46.4	0	0	---	0.00	30.035 
04:15	59.8	59.8	59.8	59	45.4	0	0	---	0.00	30.043 
04:20	59.8	59.8	59.8	59	45.4	0	0	---	0.00	30.043 
04:25	59.6	59.6	59.6	60	45.7	0	0	---	0.00	30.043 
04:30	59.5	59.5	59.5	61	46.0	0	0	---	0.00	30.048 
04:35	59.3	59.3	59.3	62	46.3	0	0	---	0.00	30.048 
04:40	59.2	59.2	59.2	63	46.6	0	0	---	0.00	30.048 
04:45	58.9	58.9	58.9	63	46.3	0	0	---	0.00	30.051 
04:50	58.7	58.7	58.7	61	45.3	0	0	---	0.00	30.051 
04:55	58.6	58.6	58.6	60	44.8	0	0	---	0.00	30.051 
05:00	58.4	58.4	58.4	60	44.6	0	0	---	0.00	30.048 
05:05	58.3	58.3	58.3	60	44.5	0	0	---	0.00	30.048 
05:10	58.1	58.1	58.1	59	43.8	0	0	---	0.00	30.048 
05:15	57.8	57.8	57.8	58	43.1	0	0	---	0.00	30.053 
05:20	57.5	57.5	57.5	57	42.4	0	0	---	0.00	30.053 
05:25	57.5	57.5	57.5	58	42.8	0	0	---	0.00	30.053 
05:30	57.3	57.3	57.3	58	42.6	0	0	---	0.00	30.051 
05:35	57.2	57.2	57.2	57	42.1	0	0	---	0.00	30.051 
05:40	57.0	57.0	57.0	57	41.9	0	0	---	0.00	30.051 
05:45	56.9	56.9	56.9	56	41.4	0	0	---	0.00	30.051 
05:50	56.9	56.9	56.9	55	40.9	0	0	---	0.00	30.051 
05:55	56.9	56.9	56.9	56	41.4	0	0	---	0.00	30.051 
06:00	56.7	56.7	56.7	55	40.7	0	0	---	0.00	30.056 
06:05	56.6	56.6	56.6	54	40.1	0	0	---	0.00	30.056 
06:10	56.6	56.6	56.6	54	40.1	0	0	---	0.00	30.056 
06:15	56.6	56.6	56.6	54	40.1	0	0	---	0.00	30.065 
06:20	56.6	56.6	56.6	54	40.1	0	0	---	0.00	30.065 
06:25	56.6	56.6	56.6	53	39.7	0	0	---	0.00	30.065 
06:30	56.6	56.6	56.6	52	39.2	0	0	---	0.00	30.065 
06:35	56.7	56.7	56.7	53	39.8	0	0	---	0.00	30.065 
06:40	56.9	56.9	56.9	53	39.9	0	0	---	0.00	30.065 
06:45	56.9	56.9	56.9	53	39.9	0	0	---	0.00	30.069 
06:50	57.0	57.0	57.0	52	39.5	0	0	---	0.00	30.069 
06:55	57.0	57.0	57.0	52	39.5	0	0	---	0.00	30.069 
07:00	57.2	57.2	57.2	52	39.7	0	0	---	0.00	30.073 
07:05	57.2	57.2	57.2	52	39.7	0	0	---	0.00	30.073 
07:10	57.2	57.2	57.2	51	39.2	0	0	---	0.00	30.073 
07:15	57.3	57.3	57.3	52	39.8	0	0	---	0.00	30.074 
07:20	57.5	57.5	57.5	51	39.5	0	0	---	0.00	30.074 
07:25	57.5	57.5	57.5	50	39.0	0	0	---	0.00	30.074 
07:30	57.5	57.5	57.5	49	38.5	0	0	---	0.00	30.071 
07:35	57.5	57.5	57.5	50	39.0	0	0	---	0.00	30.071 
07:40	57.5	57.5	57.5	49	38.5	0	0	---	0.00	30.071 
07:45	57.5	57.5	57.5	48	38.0	0	0	---	0.00	30.072 
07:50	57.6	57.6	57.6	49	38.6	0	0	---	0.00	30.072 
07:55	57.6	57.6	57.6	48	38.1	0	0	---	0.00	30.072 
08:00	57.6	57.6	57.6	49	38.6	0	1	135	0.00	30.071 
08:05	57.8	57.8	57.8	50	39.3	0	0	---	0.00	30.071 
08:10	57.8	57.8	57.8	49	38.8	0	0	---	0.00	30.071 
08:15	58.0	58.0	58.0	49	38.9	0	0	---	0.00	30.078 
08:20	58.0	58.0	58.0	50	39.5	0	0	---	0.00	30.078 
08:25	58.1	58.1	58.1	49	39.0	0	0	---	0.00	30.078 
08:30	58.3	58.3	58.3	49	39.2	0	0	---	0.00	30.076 
08:35	58.3	58.3	58.3	50	39.7	0	0	---	0.00	30.076 
08:40	58.6	58.6	58.6	48	39.0	0	0	---	0.00	30.076 
08:45	58.9	58.9	58.9	49	39.8	0	0	---	0.00	30.077 
08:50	59.3	59.3	59.3	48	39.6	1	10	90	0.00	30.077 
08:55	59.6	59.6	59.6	47	39.3	4	11	90	0.00	30.077 
09:00	59.9	59.9	59.9	48	40.2	4	12	90	0.00	30.079 
09:05	60.2	60.2	60.2	46	39.3	4	10	90	0.00	30.079 
09:10	60.5	60.5	60.5	46	39.6	4	9	90	0.00	30.079 
09:15	60.9	60.9	60.9	46	40.0	4	10	112	0.00	30.089 
09:20	61.2	61.2	61.2	45	39.7	4	11	90	0.00	30.089 
09:25	61.3	61.3	61.3	45	39.8	5	12	90	0.00	30.089 
09:30	61.6	61.6	61.6	46	40.6	4	12	90	0.00	30.087 
09:35	62.3	62.3	62.3	45	40.7	3	7	90	0.00	30.087 
09:40	62.6	62.6	62.6	44	40.4	3	8	112	0.00	30.087 
09:45	62.9	62.9	62.9	44	40.6	4	10	112	0.00	30.089 
09:50	63.2	63.2	63.2	42	39.7	3	11	112	0.00	30.089 
09:55	63.2	63.2	63.2	43	40.3	6	16	90	0.00	30.089 
10:00	63.5	63.5	63.5	40	38.7	5	14	90	0.00	30.087 
10:05	63.7	63.7	63.7	41	39.6	5	11	90	0.00	30.087 
10:10	64.0	64.0	64.0	43	41.1	4	11	90	0.00	30.087 
10:15	64.2	64.2	64.2	43	41.2	5	12	90	0.00	30.088 
10:20	64.7	64.7	64.7	42	41.1	4	12	112	0.00	30.088 
10:25	65.2	65.2	65.2	43	42.1	4	10	90	0.00	30.088 
10:30	65.6	65.6	65.6	42	41.9	4	10	112	0.00	30.078 
10:35	65.6	65.6	65.6	42	41.9	5	11	90	0.00	30.078 
10:40	66.0	66.0	66.0	42	42.2	4	12	90	0.00	30.078 
10:45	66.3	66.3	66.3	41	41.9	5	11	90	0.00	30.075 
10:50	66.4	66.4	66.4	44	43.8	4	11	90	0.00	30.075 
10:55	66.4	66.4	66.4	41	42.0	5	12	90	0.00	30.075 
11:00	66.6	66.6	66.6	44	44.0	5	11	112	0.00	30.074 
11:05	67.1	67.1	67.1	43	43.8	3	6	90	0.00	30.074 
11:10	67.9	67.9	67.9	41	43.3	3	7	90	0.00	30.074 
11:15	68.3	68.3	68.3	40	43.0	4	11	90	0.00	30.075 
11:20	67.8	67.8	67.8	40	42.6	5	10	90	0.00	30.075 
11:25	67.9	67.9	67.9	41	43.3	3	8	90	0.00	30.075 
11:30	68.6	68.6	68.6	39	42.6	4	10	90	0.00	30.073 
11:35	69.1	69.1	69.1	39	43.1	4	12	112	0.00	30.073 
11:40	69.3	69.3	69.3	39	43.3	3	11	112	0.00	30.073 
11:45	69.4	69.4	69.4	36	41.3	4	14	90	0.00	30.073 
11:50	69.4	69.4	69.4	35	40.6	4	12	112	0.00	30.073 
11:55	69.4	69.4	69.4	38	42.7	5	10	112	0.00	30.073 
12:00	69.6	69.6	69.6	36	41.5	5	9	90	0.00	30.074 
12:05	69.3	69.3	69.3	37	41.9	4	10	90	0.00	30.074 
12:10	69.1	69.1	69.1	38	42.4	5	11	112	0.00	30.074 
12:15	68.8	68.8	68.8	39	42.8	5	12	112	0.00	30.075 
12:20	68.9	68.9	68.9	37	41.5	5	11	90	0.00	30.075 
12:25	68.9	68.9	68.9	37	41.5	6	14	68	0.00	30.075 
12:30	69.1	69.1	69.1	35	40.3	4	14	90	0.00	30.071 
12:35	69.3	69.3	69.3	36	41.2	6	14	90	0.00	30.071 
12:40	69.9	69.9	69.9	36	41.7	5	11	90	0.00	30.071 
12:45	69.8	69.8	69.8	35	40.9	5	12	112	0.00	30.071 
12:50	69.6	69.6	69.6	37	42.2	5	12	90	0.00	30.071 
12:55	69.8	69.8	69.8	38	43.0	5	10	90	0.00	30.071 
13:00	69.9	69.9	69.9	39	43.8	4	7	90	0.00	30.071 
13:05	70.3	70.3	70.3	36	42.1	4	7	112	0.00	30.071 
13:10	70.3	70.3	70.3	36	42.1	4	10	90	0.00	30.071 
13:15	70.8	70.8	70.8	41	45.9	3	10	90	0.00	30.072 
13:20	70.9	70.9	70.9	36	42.6	5	13	90	0.00	30.072 
13:25	70.9	70.9	70.9	35	41.9	5	10	90	0.00	30.072 
13:30	70.8	70.8	70.8	35	41.8	5	12	90	0.00	30.072 
13:35	70.6	70.6	70.6	34	40.9	6	12	90	0.00	30.072 
13:40	70.4	70.4	70.4	37	42.9	5	12	90	0.00	30.072 
13:45	70.4	70.4	70.4	35	41.4	4	11	90	0.00	30.068 
13:50	70.6	70.6	70.6	35	41.6	5	10	90	0.00	30.068 
13:55	70.4	70.4	70.4	35	41.4	5	12	90	0.00	30.068 
14:00	70.3	70.3	70.3	34	40.6	5	13	90	0.00	30.059 
14:05	70.3	70.3	70.3	34	40.6	7	16	90	0.00	30.059 
14:10	71.1	71.1	71.1	35	42.0	5	11	90	0.00	30.059 
14:15	71.6	71.6	71.6	35	42.5	5	12	90	0.00	30.058 
14:20	71.8	71.8	71.8	36	43.4	6	12	90	0.00	30.058 
14:25	72.3	72.3	72.3	35	43.1	4	12	90	0.00	30.058 
14:30	72.7	72.7	72.7	35	43.5	5	16	90	0.00	30.048 
14:35	72.5	72.5	72.5	34	42.5	5	11	90	0.00	30.048 
14:40	72.3	72.3	72.3	33	41.6	5	10	90	0.00	30.048 
14:45	72.1	72.1	72.1	33	41.4	3	7	112	0.00	30.047 
14:50	72.1	72.1	72.1	31	39.8	4	9	90	0.00	30.047 
14:55	72.5	72.5	72.5	34	42.5	3	8	90	0.00	30.047 
15:00	72.7	72.7	72.7	32	41.1	5	15	90	0.00	30.044 
15:05	72.5	72.5	72.5	36	44.0	4	11	90	0.00	30.044 
15:10	72.7	72.7	72.7	30	39.5	6	13	90	0.00	30.044 
15:15	72.7	72.7	72.7	31	40.3	4	10	90	0.00	30.043 
15:20	72.7	72.7	72.7	31	40.3	6	17	90	0.00	30.043 
15:25	73.0	73.0	73.0	31	40.6	4	11	90	0.00	30.043 
15:30	72.8	72.8	72.8	35	43.5	4	12	112	0.00	30.040 
15:35	73.0	73.0	73.0	33	42.2	5	12	90	0.00	30.040 
15:40	73.0	73.0	73.0	32	41.4	5	11	90	0.00	30.040 
15:45	73.0	73.0	73.0	31	40.6	4	10	90	0.00	30.031 
15:50	73.2	73.2	73.2	31	40.7	5	14	90	0.00	30.031 
15:55	73.5	73.5	73.5	29	39.3	4	11	90	0.00	30.031 
16:00	73.7	73.7	73.7	32	42.0	4	14	90	0.00	30.025 
16:05	73.9	73.9	73.9	28	38.7	4	12	112	0.00	30.025 
16:10	73.7	73.7	73.7	29	39.5	5	11	90	0.00	30.025 
16:15	74.0	74.0	74.0	30	40.6	4	9	90	0.00	30.018 
16:20	74.2	74.2	74.2	30	40.8	4	13	112	0.00	30.018 
16:25	74.0	74.0	74.0	30	40.6	4	12	112	0.00	30.018 
16:30	73.7	73.7	73.7	29	39.5	5	12	112	0.00	30.013 
16:35	73.2	73.2	73.2	29	39.0	3	9	112	0.00	30.013 
16:40	73.0	73.0	73.0	30	39.7	3	11	90	0.00	30.013 
16:45	73.0	73.0	73.0	30	39.7	5	11	90	0.00	30.013 
16:50	72.7	72.7	72.7	29	38.6	5	12	90	0.00	30.013 
16:55	72.3	72.3	72.3	32	40.8	4	11	90	0.00	30.013 
17:00	72.5	72.5	72.5	30	39.3	4	7	90	0.00	30.009 
17:05	72.5	72.5	72.5	29	38.4	4	9	90	0.00	30.009 
17:10	72.7	72.7	72.7	32	41.1	4	10	90	0.00	30.009 
17:15	72.5	72.5	72.5	30	39.3	4	9	90	0.00	30.004 
17:20	72.1	72.1	72.1	30	38.9	4	9	90	0.00	30.004 
17:25	72.0	72.0	72.0	31	39.7	4	11	90	0.00	30.004 
17:30	72.0	72.0	72.0	32	40.5	3	12	90	0.00	29.999 
17:35	71.8	71.8	71.8	33	41.1	4	11	112	0.00	29.999 
17:40	71.6	71.6	71.6	31	39.4	4	13	90	0.00	29.999 
17:45	71.6	71.6	71.6	30	38.5	5	12	90	0.00	29.998 
17:50	71.6	71.6	71.6	31	39.4	5	11	90	0.00	29.998 
17:55	71.5	71.5	71.5	30	38.4	4	10	112	0.00	29.998 
18:00	71.3	71.3	71.3	32	39.9	3	11	90	0.00	29.998 
18:05	71.6	71.6	71.6	30	38.5	3	8	90	0.00	29.998 
18:10	71.8	71.8	71.8	31	39.5	5	12	90	0.00	29.998 
18:15	71.6	71.6	71.6	30	38.5	5	12	90	0.00	29.995 
18:20	71.8	71.8	71.8	30	38.7	3	12	90	0.00	29.995 
18:25	71.5	71.5	71.5	30	38.4	6	13	112	0.00	29.995 
18:30	71.3	71.3	71.3	29	37.4	6	13	90	0.00	29.993 
18:35	70.9	70.9	70.9	28	36.2	5	13	112	0.00	29.993 
18:40	70.9	70.9	70.9	31	38.7	5	14	90	0.00	29.993 
18:45	70.9	70.9	70.9	29	37.0	4	7	112	0.00	29.989 
18:50	70.9	70.9	70.9	30	37.9	4	11	90	0.00	29.989 
18:55	70.6	70.6	70.6	28	35.9	6	13	112	0.00	29.989 
19:00	70.3	70.3	70.3	29	36.5	5	11	90	0.00	29.997 
19:05	69.9	69.9	69.9	29	36.2	5	12	90	0.00	29.997 
19:10	69.8	69.8	69.8	27	34.3	4	11	90	0.00	29.997 
19:15	69.4	69.4	69.4	27	34.0	5	13	90	0.00	30.000 
19:20	69.1	69.1	69.1	28	34.6	4	9	90	0.00	30.000 
19:25	68.9	68.9	68.9	26	32.6	5	11	90	0.00	30.000 
19:30	68.6	68.6	68.6	26	32.3	6	13	112	0.00	30.000 
19:35	68.4	68.4	68.4	26	32.2	4	11	90	0.00	30.000 
19:40	68.1	68.1	68.1	25	30.9	5	10	90	0.00	30.000 
19:45	67.9	67.9	67.9	27	32.7	4	9	90	0.00	30.001 
19:50	67.8	67.8	67.8	27	32.6	4	9	90	0.00	30.001 
19:55	67.8	67.8	67.8	27	32.6	3	5	90	0.00	30.001 
20:00	67.6	67.6	67.6	27	32.4	5	13	90	0.00	30.002 
20:05	67.4	67.4	67.4	28	33.2	4	10	90	0.00	30.002 
20:10	67.3	67.3	67.3	28	33.1	5	11	90	0.00	30.002 
20:15	67.3	67.3	67.3	28	33.1	6	14	90	0.00	30.001 
20:20	67.1	67.1	67.1	29	33.8	4	10	90	0.00	30.001 
20:25	66.9	66.9	66.9	29	33.6	4	10	90	0.00	30.001 
20:30	66.8	66.8	66.8	29	33.5	5	12	90	0.00	29.998 
20:35	66.8	66.8	66.8	30	34.4	3	8	90	0.00	29.998 
20:40	66.4	66.4	66.4	31	34.8	4	9	90	0.00	29.998 
20:45	66.4	66.4	66.4	32	35.6	6	15	90	0.00	29.998 
20:50	66.3	66.3	66.3	32	35.6	4	9	112	0.00	29.998 
20:55	66.1	66.1	66.1	33	36.2	4	11	90	0.00	29.998 
21:00	66.0	66.0	66.0	34	36.8	4	11	90	0.00	29.989 
21:05	65.8	65.8	65.8	34	36.6	5	11	90	0.00	29.989 
21:10	65.6	65.6	65.6	34	36.5	5	11	90	0.00	29.989 
21:15	65.6	65.6	65.6	35	37.2	4	11	112	0.00	29.992 
21:20	65.5	65.5	65.5	35	37.1	4	10	90	0.00	29.992 
21:25	65.3	65.3	65.3	35	36.9	4	10	112	0.00	29.992 
21:30	65.2	65.2	65.2	35	36.9	5	12	90	0.00	29.995 
21:35	65.3	65.3	65.3	35	36.9	6	14	90	0.00	29.995 
21:40	65.2	65.2	65.2	35	36.9	4	9	90	0.00	29.995 
21:45	65.0	65.0	65.0	35	36.7	4	11	90	0.00	29.991 
21:50	65.0	65.0	65.0	35	36.7	4	12	90	0.00	29.991 
21:55	64.8	64.8	64.8	35	36.5	5	17	90	0.00	29.991 
22:00	64.8	64.8	64.8	35	36.5	5	14	90	0.00	29.985 
22:05	64.7	64.7	64.7	35	36.4	5	12	90	0.00	29.985 
22:10	64.7	64.7	64.7	35	36.4	5	12	90	0.00	29.985 
22:15	64.5	64.5	64.5	36	36.9	3	7	90	0.00	29.988 
22:20	64.3	64.3	64.3	35	36.1	4	10	112	0.00	29.988 
22:25	64.2	64.2	64.2	37	37.4	3	9	90	0.00	29.988 
22:30	64.0	64.0	64.0	37	37.2	3	9	90	0.00	29.991 
22:35	63.9	63.9	63.9	37	37.1	4	10	90	0.00	29.991 
22:40	63.9	63.9	63.9	36	36.4	3	9	90	0.00	29.991 
22:45	63.7	63.7	63.7	37	36.9	4	10	90	0.00	29.994 
22:50	63.7	63.7	63.7	37	36.9	4	10	90	0.00	29.994 
22:55	63.5	63.5	63.5	38	37.4	4	11	90	0.00	29.994 
23:00	63.4	63.4	63.4	37	36.7	4	11	90	0.00	29.989 
23:05	63.4	63.4	63.4	37	36.7	4	10	90	0.00	29.989 
23:10	63.2	63.2	63.2	38	37.2	3	6	90	0.00	29.989 
23:15	63.2	63.2	63.2	39	37.8	2	7	90	0.00	29.991 
23:20	63.1	63.1	63.1	38	37.1	2	5	90	0.00	29.991 
23:25	62.9	62.9	62.9	38	36.9	3	10	90	0.00	29.991 
23:30	62.9	62.9	62.9	38	36.9	4	12	90	0.00	29.992 
23:35	62.9	62.9	62.9	39	37.6	3	9	90	0.00	29.992 
23:40	62.9	62.9	62.9	38	36.9	4	12	90	0.00	29.992 
23:45	62.7	62.7	62.7	39	37.4	3	5	112	0.00	29.990 
23:50	62.6	62.6	62.6	39	37.3	3	6	112	0.00	29.990 
23:55	62.4	62.4	62.4	40	37.8	2	6	90	0.00	29.990 

CoCoRaHS
IN-AL-39
A2 Web Hosting
Creative Commons License
GoDaddy
search engine by freefind advanced

loaded 2018-11-14 00:07:41 • last modified 2010-11-18 10:43:29
Privacy PolicyDisclaimer
• wx.awcolley.com is powered by PmWiki v.2002016 •
• all content (unless otherwise noted) © 2018 A W Colley